Time;durP1;ratioP1;P1;durP2;ratioP2;P2;SDS_P1;SDS_P2;PMS_P1;PMS_P2;Temp;Humidity;BMP_temperature;BMP_pressure;BME280_temperature;BME280_humidity;BME280_pressure;Samples;Min_cycle;Max_cycle;Signal;HPM_P1;HPM_P2
2023/03/04 00:03:30;;;;;;;;;;;;;;;0.76;100.00;96030.09;10404536;28;2669;-68
2023/03/04 00:08:33;;;;;;;;;;;;;;;0.71;100.00;96032.56;10413318;28;2341;-66
2023/03/04 00:13:35;;;;;;;;;;;;;;;0.64;100.00;96029.13;10401930;28;2566;-67
2023/03/04 00:18:38;;;;;;;;;;;;;;;0.59;100.00;96031.56;10393274;28;2399;-68
2023/03/04 00:23:42;;;;;;;;;;;;;;;0.51;100.00;96022.81;10401639;28;2558;-67
2023/03/04 00:28:44;;;;;;;;;;;;;;;0.48;100.00;96031.16;10400191;28;2330;-68
2023/03/04 00:33:47;;;;;;;;;;;;;;;0.46;100.00;96032.38;10393894;28;2612;-68
2023/03/04 00:38:50;;;;;;;;;;;;;;;0.44;100.00;96040.50;10397890;28;2616;-68
2023/03/04 00:43:54;;;;;;;;;;;;;;;0.43;100.00;96041.53;10403187;28;2642;-70
2023/03/04 00:48:57;;;;;;;;;;;;;;;0.40;100.00;96031.38;10399556;28;2289;-69
2023/03/04 00:54:00;;;;;;;;;;;;;;;0.36;100.00;96039.91;10398114;28;2755;-70
2023/03/04 00:59:03;;;;;;;;;;;;;;;0.36;100.00;96035.41;10399435;28;2626;-69
2023/03/04 01:04:05;;;;;;;;;;;;;;;0.30;100.00;96028.31;10396085;28;2571;-72
2023/03/04 01:09:09;;;;;;;;;;;;;;;0.34;100.00;96021.59;10401501;28;2619;-72
2023/03/04 01:14:12;;;;;;;;;;;;;;;0.29;100.00;96013.47;10397807;28;2633;-69
2023/03/04 01:19:14;;;;;;;;;;;;;;;0.23;100.00;96012.44;10397702;28;2803;-70
2023/03/04 01:24:17;;;;;;;;;;;;;;;0.19;100.00;96013.03;10395294;28;2631;-69
2023/03/04 01:29:20;;;;;;;;;;;;;;;0.14;100.00;96016.31;10400150;28;2627;-68
2023/03/04 01:34:23;;;;;;;;;;;;;;;0.19;100.00;96003.31;10428186;28;2567;-68
2023/03/04 01:39:25;;;;;;;;;;;;;;;0.14;100.00;95999.63;10401870;28;2551;-69
2023/03/04 01:44:28;;;;;;;;;;;;;;;0.07;100.00;95998.81;10394514;28;2568;-69
2023/03/04 01:49:30;;;;;;;;;;;;;;;0.09;100.00;95996.78;10394102;28;2362;-68
2023/03/04 01:54:33;;;;;;;;;;;;;;;0.06;100.00;95989.25;10398255;28;2291;-67
2023/03/04 01:59:35;;;;;;;;;;;;;;;0.03;100.00;95990.47;10391308;28;2298;-67
2023/03/04 02:04:37;;;;;;;;;;;;;;;0.02;100.00;95980.09;10393974;28;2649;-68
2023/03/04 02:09:41;;;;;;;;;;;;;;;-0.02;100.00;95969.91;10398413;28;2602;-69
2023/03/04 02:14:44;;;;;;;;;;;;;;;-0.06;100.00;95971.38;10387131;28;2662;-70
2023/03/04 02:19:47;;;;;;;;;;;;;;;-0.06;100.00;95967.91;10400764;28;2331;-69
2023/03/04 02:24:49;;;;;;;;;;;;;;;-0.12;100.00;95958.97;10400288;28;2355;-68
2023/03/04 02:29:53;;;;;;;;;;;;;;;-0.06;100.00;95959.97;10395420;28;2329;-68
2023/03/04 02:34:55;;;;;;;;;;;;;;;-0.10;100.00;95956.09;10400901;28;2657;-68
2023/03/04 02:39:58;;;;;;;;;;;;;;;-0.14;100.00;95960.97;10387699;28;2650;-68
2023/03/04 02:45:00;;;;;;;;;;;;;;;-0.14;100.00;95960.16;10390627;28;2608;-68
2023/03/04 02:50:03;;;;;;;;;;;;;;;-0.13;100.00;95967.06;10393254;28;2599;-68
2023/03/04 02:55:06;;;;;;;;;;;;;;;-0.14;100.00;95966.25;10390748;28;2305;-69
2023/03/04 03:00:08;;;;;;;;;;;;;;;-0.17;100.00;95953.47;10390211;28;2542;-69
2023/03/04 03:05:18;;;;;;;;;;;;;;;-0.19;100.00;95952.00;10390517;28;2567;-68
2023/03/04 03:10:21;;;;;;;;;;;;;;;-0.26;100.00;95952.00;10404768;28;2627;-68
2023/03/04 03:15:24;;;;;;;;;;;;;;;-0.27;100.00;95966.22;10395103;28;2310;-68
2023/03/04 03:20:27;;;;;;;;;;;;;;;-0.37;100.00;95960.53;10389654;28;2290;-70
2023/03/04 03:25:38;;;;;;;;;;;;;;;-0.43;100.00;95971.91;10389903;28;2541;-68
2023/03/04 03:30:41;;;;;;;;;;;;;;;-0.56;100.00;95967.41;10406149;28;2321;-68
2023/03/04 03:35:44;;;;;;;;;;;;;;;-0.58;100.00;95964.94;10401851;28;2729;-68
2023/03/04 03:40:47;;;;;;;;;;;;;;;-0.62;100.00;95965.56;10394497;28;2255;-68
2023/03/04 03:45:50;;;;;;;;;;;;;;;-0.60;100.00;95960.88;10391729;28;2349;-68
2023/03/04 03:50:53;;;;;;;;;;;;;;;-0.67;100.00;95960.88;10389390;28;2340;-68
2023/03/04 03:55:57;;;;;;;;;;;;;;;-0.74;100.00;95960.03;10392138;28;2481;-67
2023/03/04 04:01:00;;;;;;;;;;;;;;;-0.75;100.00;95961.06;10396930;28;2746;-70
2023/03/04 04:06:02;;;;;;;;;;;;;;;-0.76;100.00;95955.94;10396079;28;2618;-67
2023/03/04 04:11:05;;;;;;;;;;;;;;;-0.82;100.00;95954.94;10398000;28;2651;-69
2023/03/04 04:16:07;;;;;;;;;;;;;;;-0.84;100.00;95949.84;10393813;28;2619;-68
2023/03/04 04:21:11;;;;;;;;;;;;;;;-0.88;100.00;95956.53;10394285;28;2882;-69
2023/03/04 04:26:14;;;;;;;;;;;;;;;-0.83;100.00;95950.66;10399785;28;2631;-67
2023/03/04 04:31:16;;;;;;;;;;;;;;;-0.83;100.00;95955.94;10389286;28;2772;-68
2023/03/04 04:36:20;;;;;;;;;;;;;;;-0.86;100.00;95962.44;10395354;28;2616;-68
2023/03/04 04:41:22;;;;;;;;;;;;;;;-0.90;100.00;95960.38;10396386;28;2638;-68
2023/03/04 04:46:24;;;;;;;;;;;;;;;-0.96;100.00;95950.59;10402294;28;2332;-68
2023/03/04 04:51:27;;;;;;;;;;;;;;;-1.02;100.00;95951.41;10395911;28;2627;-68
2023/03/04 04:56:30;;;;;;;;;;;;;;;-1.00;100.00;95959.94;10410900;28;2607;-69
2023/03/04 05:01:33;;;;;;;;;;;;;;;-1.00;100.00;95954.66;10401107;28;2600;-69
2023/03/04 05:06:35;;;;;;;;;;;;;;;-1.01;100.00;95963.59;10412557;28;2566;-71
2023/03/04 05:11:38;;;;;;;;;;;;;;;-0.96;100.00;95963.81;10408792;28;2686;-71
2023/03/04 05:16:40;;;;;;;;;;;;;;;-1.09;100.00;95962.72;10405035;28;2619;-73
2023/03/04 05:21:43;;;;;;;;;;;;;;;-1.11;100.00;95964.75;10419200;28;2373;-68
2023/03/04 05:26:46;;;;;;;;;;;;;;;-1.11;100.00;95958.66;10403437;28;2302;-68
2023/03/04 05:31:48;;;;;;;;;;;;;;;-1.13;100.00;95955.44;10395938;28;2202;-68
2023/03/04 05:36:51;;;;;;;;;;;;;;;-1.13;100.00;95956.25;10397350;28;2389;-69
2023/03/04 05:41:54;;;;;;;;;;;;;;;-1.15;100.00;95958.22;10398586;28;2734;-69
2023/03/04 05:46:57;;;;;;;;;;;;;;;-1.15;100.00;95968.78;10403226;28;2434;-69
2023/03/04 05:51:59;;;;;;;;;;;;;;;-1.18;100.00;95968.38;10404986;28;2679;-69
2023/03/04 05:57:02;;;;;;;;;;;;;;;-1.11;100.00;95971.88;10395762;28;2550;-69
2023/03/04 06:02:05;;;;;;;;;;;;;;;-1.11;100.00;95974.50;10396200;28;2764;-68
2023/03/04 06:07:07;;;;;;;;;;;;;;;-1.05;100.00;95983.47;10400733;28;2275;-67
2023/03/04 06:12:11;;;;;;;;;;;;;;;-1.00;100.00;95986.34;10393880;28;2549;-68
2023/03/04 06:17:14;;;;;;;;;;;;;;;-0.89;100.00;95988.38;10400376;28;2705;-69
2023/03/04 06:22:16;;;;;;;;;;;;;;;-0.82;100.00;95989.25;10402524;28;2721;-68
2023/03/04 06:27:20;;;;;;;;;;;;;;;-0.68;100.00;95984.84;10398605;28;2599;-69
2023/03/04 06:32:23;;;;;;;;;;;;;;;-0.56;100.00;95992.00;10398456;28;2679;-67
2023/03/04 06:37:26;;;;;;;;;;;;;;;-0.50;100.00;95992.22;10406473;28;2703;-68
2023/03/04 06:42:28;;;;;;;;;;;;;;;-0.38;100.00;95995.88;10397015;28;2708;-69
2023/03/04 06:47:30;;;;;;;;;;;;;;;-0.25;100.00;95995.09;10395830;28;2699;-67
2023/03/04 06:52:33;;;;;;;;;;;;;;;-0.08;100.00;95994.50;10415621;28;2414;-68
2023/03/04 06:57:36;;;;;;;;;;;;;;;0.10;100.00;96003.69;10397872;28;2636;-68
2023/03/04 07:02:39;;;;;;;;;;;;;;;0.32;100.00;96009.56;10406661;28;2329;-68
2023/03/04 07:07:41;;;;;;;;;;;;;;;0.53;100.00;95999.63;10391121;28;2298;-68
2023/03/04 07:12:44;;;;;;;;;;;;;;;0.70;100.00;96004.47;10399737;28;2498;-69
2023/03/04 07:17:46;;;;;;;;;;;;;;;0.78;100.00;95998.97;10394298;28;2608;-68
2023/03/04 07:22:49;;;;;;;;;;;;;;;1.01;100.00;95999.31;10396301;28;2939;-67
2023/03/04 07:27:51;;;;;;;;;;;;;;;1.11;100.00;96004.19;10391870;28;2854;-68
2023/03/04 07:32:54;;;;;;;;;;;;;;;1.18;100.00;96009.47;10397645;28;2360;-68
2023/03/04 07:37:57;;;;;;;;;;;;;;;1.30;100.00;96015.72;10387275;28;2373;-68
2023/03/04 07:43:00;;;;;;;;;;;;;;;1.53;100.00;96017.88;10398397;28;2640;-69
2023/03/04 07:48:03;;;;;;;;;;;;;;;1.68;100.00;96025.56;10397203;28;2651;-68
2023/03/04 07:53:06;;;;;;;;;;;;;;;1.59;100.00;96031.09;10404557;28;2594;-71
2023/03/04 07:58:09;;;;;;;;;;;;;;;1.54;100.00;96038.88;10401382;28;2409;-70
2023/03/04 08:03:12;;;;;;;;;;;;;;;1.41;100.00;96043.41;10396564;28;2681;-69
2023/03/04 08:08:15;;;;;;;;;;;;;;;1.50;100.00;96050.09;10406310;28;2329;-68
2023/03/04 08:13:18;;;;;;;;;;;;;;;1.68;100.00;96050.22;10405525;28;2572;-67
2023/03/04 08:18:21;;;;;;;;;;;;;;;1.74;100.00;96043.25;10399529;28;2564;-68
2023/03/04 08:23:23;;;;;;;;;;;;;;;1.64;100.00;96027.81;10399109;28;2567;-68
2023/03/04 08:28:27;;;;;;;;;;;;;;;1.77;100.00;96042.81;10394973;28;2693;-68
2023/03/04 08:33:29;;;;;;;;;;;;;;;1.88;100.00;96036.88;10391244;28;2581;-69
2023/03/04 08:38:31;;;;;;;;;;;;;;;2.09;100.00;96038.38;10434914;28;2532;-68
2023/03/04 08:43:34;;;;;;;;;;;;;;;2.24;100.00;96032.78;10407547;28;2636;-68
2023/03/04 08:48:36;;;;;;;;;;;;;;;2.07;100.00;96033.28;10397553;28;2572;-68
2023/03/04 08:53:39;;;;;;;;;;;;;;;2.41;100.00;96033.84;10401092;28;2353;-68
2023/03/04 08:58:42;;;;;;;;;;;;;;;2.71;100.00;96032.19;10395688;28;2585;-70
2023/03/04 09:03:44;;;;;;;;;;;;;;;2.62;100.00;96036.16;10397282;28;2357;-71
2023/03/04 09:08:47;;;;;;;;;;;;;;;2.62;100.00;96036.16;10401088;28;2693;-70
2023/03/04 09:13:50;;;;;;;;;;;;;;;2.78;100.00;96029.47;10399062;28;2300;-71
2023/03/04 09:18:53;;;;;;;;;;;;;;;2.93;100.00;96026.50;10403477;28;2354;-71
2023/03/04 09:23:56;;;;;;;;;;;;;;;3.29;100.00;96014.25;10394731;28;2293;-74
2023/03/04 09:28:59;;;;;;;;;;;;;;;3.32;100.00;96011.97;10386514;28;3006;-73
2023/03/04 09:34:02;;;;;;;;;;;;;;;3.55;100.00;96019.25;10401013;28;2649;-72
2023/03/04 09:39:04;;;;;;;;;;;;;;;3.37;100.00;96020.09;10401757;28;2656;-72
2023/03/04 09:44:07;;;;;;;;;;;;;;;3.32;100.00;96019.94;10398125;28;2574;-73
2023/03/04 09:49:09;;;;;;;;;;;;;;;3.29;100.00;96011.59;10392978;28;2586;-68
2023/03/04 09:54:12;;;;;;;;;;;;;;;3.43;100.00;96010.41;10396706;28;2852;-69
2023/03/04 09:59:15;;;;;;;;;;;;;;;3.53;100.00;96010.69;10403487;28;2880;-69
2023/03/04 10:04:17;;;;;;;;;;;;;;;3.58;100.00;96002.06;10396895;28;2879;-71
2023/03/04 10:09:23;;;;;;;;;;;;;;;3.92;100.00;96003.22;10390546;28;2801;-72
2023/03/04 10:14:25;;;;;;;;;;;;;;;4.18;100.00;95994.88;10431308;28;2377;-71
2023/03/04 10:19:27;;;;;;;;;;;;;;;4.20;100.00;95986.66;10394229;28;2864;-71
2023/03/04 10:24:30;;;;;;;;;;;;;;;4.30;100.00;95981.59;10401146;28;2300;-72
2023/03/04 10:29:33;;;;;;;;;;;;;;;4.38;100.00;95975.13;10402745;28;2853;-72
2023/03/04 10:34:36;;;;;;;;;;;;;;;4.51;100.00;95972.25;10400179;28;2963;-71
2023/03/04 10:39:38;;;;;;;;;;;;;;;4.65;100.00;95981.66;10402644;28;2890;-70
2023/03/04 10:44:42;;;;;;;;;;;;;;;4.65;100.00;95971.00;10403284;28;3211;-70
2023/03/04 10:49:44;;;;;;;;;;;;;;;4.52;100.00;95957.91;10391310;28;2999;-70
2023/03/04 10:54:47;;;;;;;;;;;;;;;4.81;100.00;95975.59;10391079;28;2911;-70
2023/03/04 10:59:52;;;;;;;;;;;;;;;4.91;100.00;95960.91;10388454;28;2971;-71
2023/03/04 11:04:54;;;;;;;;;;;;;;;5.07;100.00;95960.19;10394422;28;2888;-70
2023/03/04 11:09:57;;;;;;;;;;;;;;;4.99;100.00;95960.56;10396479;28;2856;-71
2023/03/04 11:15:00;;;;;;;;;;;;;;;4.90;100.00;95954.78;10389811;28;2920;-70
2023/03/04 11:20:02;;;;;;;;;;;;;;;5.02;100.00;95955.56;10393426;28;2978;-69
2023/03/04 11:25:05;;;;;;;;;;;;;;;4.98;100.00;95959.75;10390985;28;3007;-72
2023/03/04 11:30:07;;;;;;;;;;;;;;;5.33;100.00;95950.84;10401949;28;2781;-69
2023/03/04 11:35:09;;;;;;;;;;;;;;;5.52;100.00;95948.84;10399278;28;2808;-70
2023/03/04 11:40:11;;;;;;;;;;;;;;;5.37;100.00;95952.03;10436388;28;2873;-72
2023/03/04 11:45:24;;;;;;;;;;;;;;;4.97;100.00;95946.66;10398772;28;2267;-71
2023/03/04 11:50:33;;;;;;;;;;;;;;;4.86;100.00;95941.09;10405001;28;2864;-71
2023/03/04 11:55:36;;;;;;;;;;;;;;;5.09;100.00;95931.44;10402502;28;2302;-70
2023/03/04 12:00:39;;;;;;;;;;;;;;;5.20;100.00;95925.28;10398706;28;2904;-69
2023/03/04 12:05:42;;;;;;;;;;;;;;;5.49;100.00;95928.00;10399869;28;2368;-70
2023/03/04 12:10:45;;;;;;;;;;;;;;;5.51;100.00;95905.38;10400832;28;2935;-69
2023/03/04 12:15:47;;;;;;;;;;;;;;;5.54;100.00;95910.25;10397557;28;2824;-70
2023/03/04 12:20:50;;;;;;;;;;;;;;;5.57;100.00;95912.41;10398797;28;2853;-71
2023/03/04 12:25:53;;;;;;;;;;;;;;;5.25;100.00;95901.41;10395887;28;2952;-71
2023/03/04 12:30:56;;;;;;;;;;;;;;;5.42;100.00;95899.63;10408939;28;3048;-70
2023/03/04 12:35:59;;;;;;;;;;;;;;;5.49;100.00;95898.66;10403493;28;2370;-72
2023/03/04 12:41:03;;;;;;;;;;;;;;;5.55;100.00;95874.53;10398474;28;2895;-73
2023/03/04 12:46:08;;;;;;;;;;;;;;;5.30;100.00;95879.38;10390786;28;2879;-70
2023/03/04 12:51:10;;;;;;;;;;;;;;;5.03;100.00;95892.44;10399613;28;2892;-71
2023/03/04 12:56:13;;;;;;;;;;;;;;;4.52;100.00;95881.53;10394959;28;2896;-71
2023/03/04 13:01:15;;;;;;;;;;;;;;;4.23;100.00;95885.91;10400960;28;3057;-71
2023/03/04 13:06:28;;;;;;;;;;;;;;;4.36;100.00;95876.88;10399042;28;2920;-72
2023/03/04 13:11:31;;;;;;;;;;;;;;;4.33;100.00;95862.19;10405319;28;2942;-70
2023/03/04 13:16:33;;;;;;;;;;;;;;;4.32;100.00;95860.56;10396009;28;2900;-73
2023/03/04 13:21:36;;;;;;;;;;;;;;;4.08;100.00;95864.28;10399054;28;3214;-71
2023/03/04 13:26:39;;;;;;;;;;;;;;;4.01;100.00;95868.91;10396325;28;2475;-70
2023/03/04 13:31:41;;;;;;;;;;;;;;;4.17;100.00;95846.09;10402777;28;2830;-75
2023/03/04 13:36:44;;;;;;;;;;;;;;;4.01;100.00;95859.06;10393061;28;2333;-75
2023/03/04 13:41:46;;;;;;;;;;;;;;;3.99;100.00;95866.44;10405225;28;3018;-72
2023/03/04 13:46:49;;;;;;;;;;;;;;;4.10;100.00;95851.53;10402316;28;2924;-71
2023/03/04 13:51:52;;;;;;;;;;;;;;;3.83;100.00;95847.72;10408662;28;2925;-69
2023/03/04 13:56:54;;;;;;;;;;;;;;;3.76;100.00;95856.59;10410015;28;2887;-68
2023/03/04 14:01:58;;;;;;;;;;;;;;;3.85;100.00;95846.44;10409833;28;2901;-70
2023/03/04 14:07:04;;;;;;;;;;;;;;;3.69;100.00;95844.44;10397619;28;3049;-70
2023/03/04 14:12:07;;;;;;;;;;;;;;;3.48;100.00;95848.44;10397270;28;2267;-70
2023/03/04 14:17:09;;;;;;;;;;;;;;;3.23;100.00;95846.72;10392950;28;2899;-69
2023/03/04 14:22:12;;;;;;;;;;;;;;;3.06;100.00;95845.75;10394808;28;2888;-68
2023/03/04 14:27:15;;;;;;;;;;;;;;;2.86;100.00;95835.41;10392759;28;2781;-69
2023/03/04 14:32:18;;;;;;;;;;;;;;;2.83;100.00;95835.81;10391481;28;2375;-69
2023/03/04 14:37:20;;;;;;;;;;;;;;;2.92;100.00;95836.31;10388777;28;2920;-69
2023/03/04 14:42:23;;;;;;;;;;;;;;;2.91;100.00;95830.19;10391945;28;2913;-69
2023/03/04 14:47:26;;;;;;;;;;;;;;;2.87;100.00;95830.91;10396670;28;2940;-73
2023/03/04 14:52:28;;;;;;;;;;;;;;;2.59;100.00;95836.72;10385616;28;2967;-67
2023/03/04 14:57:32;;;;;;;;;;;;;;;2.52;100.00;95839.44;10395698;28;2919;-67
2023/03/04 15:02:35;;;;;;;;;;;;;;;2.00;100.00;95846.91;10399387;28;2917;-66
2023/03/04 15:07:37;;;;;;;;;;;;;;;2.10;100.00;95833.16;10389655;28;2875;-68
2023/03/04 15:12:48;;;;;;;;;;;;;;;2.11;100.00;95825.00;10397970;28;3001;-68
2023/03/04 15:17:59;;;;;;;;;;;;;;;2.05;100.00;95822.41;10397056;28;2314;-69
2023/03/04 15:23:13;;;;;;;;;;;;;;;1.79;100.00;95824.28;10393764;28;2814;-67
2023/03/04 15:28:22;;;;;;;;;;;;;;;1.70;100.00;95830.03;10391707;28;2887;-69
2023/03/04 15:33:36;;;;;;;;;;;;;;;1.71;100.00;95832.47;10387360;28;2294;-68
2023/03/04 15:38:49;;;;;;;;;;;;;;;1.49;100.00;95834.69;10390989;28;2994;-66
2023/03/04 15:43:55;;;;;;;;;;;;;;;1.31;100.00;95837.25;10404785;28;2908;-67
2023/03/04 15:49:04;;;;;;;;;;;;;;;1.28;100.00;95832.41;10409759;28;2879;-66
2023/03/04 15:54:09;;;;;;;;;;;;;;;1.32;100.00;95836.22;10438769;28;2912;-66
2023/03/04 15:59:16;;;;;;;;;;;;;;;1.34;100.00;95850.91;10408608;28;2934;-67
2023/03/04 16:04:28;;;;;;;;;;;;;;;1.01;100.00;95843.13;10414136;28;2354;-67
2023/03/04 16:09:31;;;;;;;;;;;;;;;0.90;100.00;95833.22;10400842;28;2896;-68
2023/03/04 16:14:34;;;;;;;;;;;;;;;0.75;100.00;95853.84;10406147;28;2911;-71
2023/03/04 16:19:36;;;;;;;;;;;;;;;0.70;100.00;95853.66;10416956;28;3391;-66
2023/03/04 16:24:39;;;;;;;;;;;;;;;0.70;100.00;95853.66;10418491;28;2856;-66
2023/03/04 16:29:42;;;;;;;;;;;;;;;0.50;100.00;95862.47;10413684;28;2330;-68
2023/03/04 16:34:45;;;;;;;;;;;;;;;0.27;100.00;95862.16;10413032;28;2700;-67
2023/03/04 16:39:48;;;;;;;;;;;;;;;0.28;100.00;95873.53;10414315;28;2226;-66
2023/03/04 16:45:02;;;;;;;;;;;;;;;0.18;100.00;95877.41;10410850;28;2298;-69
2023/03/04 16:50:04;;;;;;;;;;;;;;;-0.08;100.00;95870.31;10424242;28;2338;-67
2023/03/04 16:55:17;;;;;;;;;;;;;;;-0.09;100.00;95889.03;10405792;28;3130;-68
2023/03/04 17:00:19;;;;;;;;;;;;;;;-0.34;100.00;95883.53;10408965;28;2349;-66
2023/03/04 17:05:32;;;;;;;;;;;;;;;-0.26;100.00;95888.59;10411823;28;3035;-66
2023/03/04 17:10:36;;;;;;;;;;;;;;;-0.41;100.00;95901.22;10416780;28;3027;-67
2023/03/04 17:15:41;;;;;;;;;;;;;;;-0.51;100.00;95909.50;10404314;28;2948;-66
2023/03/04 17:20:44;;;;;;;;;;;;;;;-0.53;100.00;95902.81;10409411;28;2433;-67
2023/03/04 17:25:47;;;;;;;;;;;;;;;-0.43;100.00;95919.09;10400089;28;2286;-67
2023/03/04 17:30:49;;;;;;;;;;;;;;;-0.61;100.00;95928.41;10408798;28;2873;-67
2023/03/04 17:35:52;;;;;;;;;;;;;;;-0.42;100.00;95931.28;10421532;28;2940;-68
2023/03/04 17:40:55;;;;;;;;;;;;;;;-0.49;100.00;95931.25;10411356;28;2828;-69
2023/03/04 17:45:59;;;;;;;;;;;;;;;-0.53;100.00;95939.78;10415155;28;2848;-76
2023/03/04 17:51:02;;;;;;;;;;;;;;;-0.45;100.00;95944.88;10398105;28;2891;-69
2023/03/04 17:56:04;;;;;;;;;;;;;;;-0.62;100.00;95955.81;10407252;28;2292;-66
2023/03/04 18:01:08;;;;;;;;;;;;;;;-0.70;100.00;95950.72;10408348;28;2975;-68
2023/03/04 18:06:11;;;;;;;;;;;;;;;-0.53;100.00;95955.63;10410067;28;2879;-66
2023/03/04 18:11:14;;;;;;;;;;;;;;;-0.66;100.00;95961.69;10416637;28;3214;-65
2023/03/04 18:16:21;;;;;;;;;;;;;;;-0.70;100.00;95965.72;10406180;28;2318;-66
2023/03/04 18:21:25;;;;;;;;;;;;;;;-0.73;100.00;95966.13;10404555;28;2326;-66
2023/03/04 18:26:27;;;;;;;;;;;;;;;-0.88;100.00;95975.03;10414716;28;2345;-67
2023/03/04 18:31:31;;;;;;;;;;;;;;;-0.87;100.00;95960.81;10407350;28;2873;-67
2023/03/04 18:36:35;;;;;;;;;;;;;;;-0.90;100.00;95970.94;10410240;28;2919;-67
2023/03/04 18:41:37;;;;;;;;;;;;;;;-0.91;100.00;95980.69;10406558;28;2959;-68
2023/03/04 18:46:40;;;;;;;;;;;;;;;-1.06;100.00;95981.84;10399804;28;2951;-65
2023/03/04 18:51:42;;;;;;;;;;;;;;;-0.97;100.00;95970.91;10397888;28;2895;-67
2023/03/04 18:56:45;;;;;;;;;;;;;;;-1.04;100.00;95969.25;10391962;28;2894;-65
2023/03/04 19:01:48;;;;;;;;;;;;;;;-0.93;100.00;95976.63;10400684;28;2836;-67
2023/03/04 19:06:51;;;;;;;;;;;;;;;-0.79;100.00;95978.28;10398227;28;2864;-67
2023/03/04 19:11:54;;;;;;;;;;;;;;;-0.91;100.00;95978.03;10407625;28;2820;-68
2023/03/04 19:16:56;;;;;;;;;;;;;;;-0.84;100.00;95985.97;10402602;28;2923;-67
2023/03/04 19:21:59;;;;;;;;;;;;;;;-0.70;100.00;95986.84;10402069;28;2379;-66
2023/03/04 19:27:01;;;;;;;;;;;;;;;-0.82;100.00;95990.06;10402174;28;2828;-67
2023/03/04 19:32:04;;;;;;;;;;;;;;;-0.66;100.00;95983.63;10402450;28;2983;-66
2023/03/04 19:37:08;;;;;;;;;;;;;;;-0.74;100.00;95983.78;10397165;28;2899;-66
2023/03/04 19:42:10;;;;;;;;;;;;;;;-0.79;100.00;95983.56;10407181;28;2900;-67
2023/03/04 19:47:13;;;;;;;;;;;;;;;-0.81;100.00;95990.88;10405077;28;2350;-71
2023/03/04 19:52:15;;;;;;;;;;;;;;;-0.75;100.00;95984.00;10409488;28;2337;-67
2023/03/04 19:57:18;;;;;;;;;;;;;;;-0.69;100.00;95986.66;10409015;28;2346;-66
2023/03/04 20:02:21;;;;;;;;;;;;;;;-0.59;100.00;95984.44;10408631;28;2852;-66
2023/03/04 20:07:24;;;;;;;;;;;;;;;-0.78;100.00;95990.47;10413355;28;2962;-66
2023/03/04 20:12:26;;;;;;;;;;;;;;;-0.69;100.00;95978.75;10406943;28;2899;-67
2023/03/04 20:17:28;;;;;;;;;;;;;;;-0.61;100.00;95989.13;10404605;28;2334;-68
2023/03/04 20:22:31;;;;;;;;;;;;;;;-0.66;100.00;95983.63;10411537;28;2848;-66
2023/03/04 20:27:34;;;;;;;;;;;;;;;-0.56;100.00;95981.44;10412527;28;2907;-67
2023/03/04 20:32:37;;;;;;;;;;;;;;;-0.60;100.00;95972.25;10403827;28;2933;-67
2023/03/04 20:37:40;;;;;;;;;;;;;;;-0.51;100.00;95974.72;10410289;28;2879;-67
2023/03/04 20:42:43;;;;;;;;;;;;;;;-0.41;100.00;95985.72;10417555;28;2896;-68
2023/03/04 20:47:45;;;;;;;;;;;;;;;-0.41;100.00;95973.31;10414116;28;2963;-67
2023/03/04 20:52:48;;;;;;;;;;;;;;;-0.59;100.00;95963.31;10412816;28;2848;-65
2023/03/04 20:57:50;;;;;;;;;;;;;;;-0.52;100.00;95958.06;10413291;28;2939;-68
2023/03/04 21:02:53;;;;;;;;;;;;;;;-0.48;100.00;95964.56;10414571;28;2868;-68
2023/03/04 21:07:56;;;;;;;;;;;;;;;-0.43;100.00;95962.16;10402210;28;2931;-68
2023/03/04 21:12:58;;;;;;;;;;;;;;;-0.48;100.00;95950.56;10401077;28;2904;-66
2023/03/04 21:18:01;;;;;;;;;;;;;;;-0.31;100.00;95955.28;10402250;28;2738;-68
2023/03/04 21:23:04;;;;;;;;;;;;;;;-0.35;100.00;95950.59;10406730;28;2855;-69
2023/03/04 21:28:06;;;;;;;;;;;;;;;-0.40;100.00;95945.91;10404082;28;2919;-67
2023/03/04 21:33:08;;;;;;;;;;;;;;;-0.43;100.00;95941.03;10398081;28;2991;-68
2023/03/04 21:38:12;;;;;;;;;;;;;;;-0.55;100.00;95935.50;10405843;28;2940;-69
2023/03/04 21:43:24;;;;;;;;;;;;;;;-0.66;100.00;95922.91;10407233;28;2895;-66
2023/03/04 21:48:28;;;;;;;;;;;;;;;-0.72;100.00;95926.31;10399538;28;2949;-75
2023/03/04 21:53:31;;;;;;;;;;;;;;;-0.69;100.00;95914.56;10412370;28;2923;-77
2023/03/04 21:58:35;;;;;;;;;;;;;;;-0.65;100.00;95916.59;10402202;28;2455;-75
2023/03/04 22:03:38;;;;;;;;;;;;;;;-0.53;100.00;95902.81;10403511;28;2311;-67
2023/03/04 22:08:41;;;;;;;;;;;;;;;-0.42;100.00;95894.31;10413813;28;2883;-66
2023/03/04 22:13:43;;;;;;;;;;;;;;;-0.34;100.00;95884.34;10399389;28;2871;-74
2023/03/04 22:18:46;;;;;;;;;;;;;;;-0.25;100.00;95884.97;10396763;28;2968;-68
2023/03/04 22:23:49;;;;;;;;;;;;;;;-0.24;100.00;95891.06;10401763;28;2879;-67
2023/03/04 22:28:55;;;;;;;;;;;;;;;-0.29;100.00;95895.13;10392886;28;2891;-68
2023/03/04 22:33:58;;;;;;;;;;;;;;;-0.27;100.00;95887.00;10392228;28;2844;-67
2023/03/04 22:39:00;;;;;;;;;;;;;;;-0.29;100.00;95889.84;10393736;28;2338;-66
2023/03/04 22:44:04;;;;;;;;;;;;;;;-0.29;100.00;95884.56;10392345;28;2837;-68
2023/03/04 22:49:08;;;;;;;;;;;;;;;-0.17;100.00;95895.34;10390891;28;2896;-68
2023/03/04 22:54:10;;;;;;;;;;;;;;;-0.13;100.00;95899.16;10394782;28;2887;-67
2023/03/04 22:59:23;;;;;;;;;;;;;;;-0.08;100.00;95891.44;10392904;28;2943;-68
2023/03/04 23:04:25;;;;;;;;;;;;;;;-0.16;100.00;95883.75;10390363;28;2927;-67
2023/03/04 23:09:28;;;;;;;;;;;;;;;-0.13;100.00;95893.88;10392845;28;2971;-67
2023/03/04 23:14:31;;;;;;;;;;;;;;;-0.13;100.00;95901.00;10403025;28;2410;-66
2023/03/04 23:19:33;;;;;;;;;;;;;;;-0.19;100.00;95893.88;10391664;28;2915;-67
2023/03/04 23:24:35;;;;;;;;;;;;;;;-0.14;100.00;95888.81;10390690;28;2864;-67
2023/03/04 23:29:38;;;;;;;;;;;;;;;-0.21;100.00;95886.19;10392869;28;2848;-68
2023/03/04 23:34:41;;;;;;;;;;;;;;;-0.20;100.00;95881.69;10392499;28;2856;-67
2023/03/04 23:39:43;;;;;;;;;;;;;;;-0.17;100.00;95876.84;10393519;28;2853;-67
2023/03/04 23:44:46;;;;;;;;;;;;;;;-0.14;100.00;95868.50;10389978;28;3040;-68
2023/03/04 23:49:48;;;;;;;;;;;;;;;-0.21;100.00;95865.03;10389466;28;2349;-69
2023/03/04 23:54:51;;;;;;;;;;;;;;;-0.21;100.00;95861.59;10396361;28;2952;-68
2023/03/04 23:59:53;;;;;;;;;;;;;;;-0.15;100.00;95868.69;10392848;28;2979;-67
